createdAt,value
2018-08-22T00:01:13.928Z,21.94
2018-08-22T00:03:43.280Z,21.91
2018-08-22T00:06:15.588Z,21.91
2018-08-22T00:08:45.920Z,21.88
2018-08-22T00:11:15.098Z,21.79
2018-08-22T00:13:44.706Z,21.75
2018-08-22T00:16:14.142Z,21.79
2018-08-22T00:18:43.410Z,21.72
2018-08-22T00:21:12.284Z,21.68
2018-08-22T00:23:42.350Z,21.65
2018-08-22T00:26:11.314Z,21.66
2018-08-22T00:28:40.415Z,21.60
2018-08-22T00:31:10.671Z,21.61
2018-08-22T00:33:43.378Z,21.63
2018-08-22T00:36:12.964Z,21.56
2018-08-22T00:38:42.563Z,21.54
2018-08-22T00:41:11.740Z,21.50
2018-08-22T00:43:41.365Z,21.56
2018-08-22T00:46:10.777Z,21.61
2018-08-22T00:48:39.692Z,21.59
2018-08-22T00:51:08.758Z,21.54
2018-08-22T00:53:37.698Z,21.45
2018-08-22T00:56:06.772Z,21.35
2018-08-22T00:58:36.233Z,21.29
2018-08-22T01:01:05.242Z,21.16
2018-08-22T01:03:34.185Z,21.12
2018-08-22T01:06:03.778Z,21.12
2018-08-22T01:08:32.941Z,21.13
2018-08-22T01:11:01.932Z,21.16
2018-08-22T01:13:31.174Z,21.19
2018-08-22T01:16:00.102Z,21.19
2018-08-22T01:18:28.999Z,21.12
2018-08-22T01:20:57.882Z,21.13
2018-08-22T01:23:26.873Z,21.11
2018-08-22T01:25:55.979Z,21.07
2018-08-22T01:28:25.336Z,21.06
2018-08-22T01:30:54.282Z,21.02
2018-08-22T01:33:23.371Z,20.95
2018-08-22T01:35:52.457Z,20.91
2018-08-22T01:38:21.382Z,20.87
2018-08-22T01:40:50.428Z,20.80
2018-08-22T01:43:19.702Z,20.79
2018-08-22T01:45:48.656Z,20.79
2018-08-22T01:48:17.823Z,20.71
2018-08-22T01:50:46.727Z,20.65
2018-08-22T01:53:15.620Z,20.63
2018-08-22T01:55:44.654Z,20.53
2018-08-22T01:58:14.034Z,20.46
2018-08-22T02:00:42.871Z,20.42
2018-08-22T02:03:11.910Z,20.37
2018-08-22T02:05:41.298Z,20.31
2018-08-22T02:08:10.299Z,20.20
2018-08-22T02:10:39.388Z,20.11
2018-08-22T02:13:08.785Z,20.06
2018-08-22T02:15:37.697Z,20.03
2018-08-22T02:18:06.662Z,20.00
2018-08-22T02:20:35.623Z,19.96
2018-08-22T02:23:04.629Z,19.92
2018-08-22T02:25:33.736Z,19.91
2018-08-22T02:28:03.057Z,19.92
2018-08-22T02:30:32.038Z,19.92
2018-08-22T02:33:00.950Z,19.93
2018-08-22T02:35:29.851Z,19.96
2018-08-22T02:37:58.702Z,19.97
2018-08-22T02:40:27.619Z,19.93
2018-08-22T02:42:56.542Z,19.88
2018-08-22T02:45:25.533Z,19.87
2018-08-22T02:47:54.383Z,19.88
2018-08-22T02:50:23.745Z,19.88
2018-08-22T02:52:52.686Z,19.96
2018-08-22T02:55:21.644Z,19.97
2018-08-22T02:57:51.245Z,19.99
2018-08-22T03:00:20.180Z,19.97
2018-08-22T03:02:49.292Z,20.00
2018-08-22T03:05:18.285Z,20.02
2018-08-22T03:07:47.237Z,20.02
2018-08-22T03:10:16.157Z,20.05
2018-08-22T03:12:45.378Z,20.04
2018-08-22T03:15:14.386Z,20.07
2018-08-22T03:17:43.383Z,20.09
2018-08-22T03:20:12.328Z,20.08
2018-08-22T03:22:41.411Z,20.09
2018-08-22T03:25:10.414Z,20.08
2018-08-22T03:27:39.931Z,20.06
2018-08-22T03:30:08.882Z,20.01
2018-08-22T03:32:37.733Z,19.98
2018-08-22T03:35:07.224Z,20.04
2018-08-22T03:37:36.060Z,19.98
2018-08-22T03:40:05.005Z,19.91
2018-08-22T03:42:33.969Z,19.93
2018-08-22T03:45:03.031Z,19.93
2018-08-22T03:47:32.085Z,19.89
2018-08-22T03:50:01.059Z,19.96
2018-08-22T03:52:30.003Z,20.00
2018-08-22T03:54:59.022Z,20.03
2018-08-22T03:57:28.133Z,20.11
2018-08-22T03:59:57.132Z,20.18
2018-08-22T04:02:26.033Z,20.21
2018-08-22T04:04:54.894Z,20.26
2018-08-22T04:07:23.857Z,20.36
2018-08-22T04:09:52.838Z,20.42
2018-08-22T04:12:22.158Z,20.48
2018-08-22T04:14:51.164Z,20.55
2018-08-22T04:17:20.259Z,20.70
2018-08-22T04:19:49.641Z,20.79
2018-08-22T04:22:18.511Z,20.87
2018-08-22T04:24:47.452Z,20.97
2018-08-22T04:27:16.940Z,21.10
2018-08-22T04:29:45.880Z,21.23
2018-08-22T04:32:14.862Z,21.38
2018-08-22T04:34:44.201Z,21.49
2018-08-22T04:37:13.184Z,21.63
2018-08-22T04:39:42.176Z,21.80
2018-08-22T04:42:11.900Z,21.87
2018-08-22T04:44:40.950Z,22.04
2018-08-22T04:47:09.961Z,22.15
2018-08-22T04:49:39.386Z,22.27
2018-08-22T04:52:08.276Z,22.31
2018-08-22T04:54:37.139Z,22.43
2018-08-22T04:57:06.473Z,22.57
2018-08-22T04:59:35.408Z,22.59
2018-08-22T05:02:04.431Z,22.61
2018-08-22T05:04:33.438Z,22.70
2018-08-22T05:07:02.459Z,22.86
2018-08-22T05:09:31.213Z,23.14
2018-08-22T05:12:00.252Z,23.30
2018-08-22T05:14:29.361Z,23.28
2018-08-22T05:16:58.473Z,23.41
2018-08-22T05:19:27.879Z,23.29
2018-08-22T05:21:56.780Z,23.09
2018-08-22T05:24:25.663Z,23.20
2018-08-22T05:26:55.114Z,23.19
2018-08-22T05:29:24.008Z,23.19
2018-08-22T05:31:52.804Z,23.25
2018-08-22T05:34:22.044Z,23.24
2018-08-22T05:36:50.925Z,23.25
2018-08-22T05:39:20.089Z,23.34
2018-08-22T05:41:49.400Z,23.35
2018-08-22T05:44:18.380Z,23.42
2018-08-22T05:46:47.328Z,23.25
2018-08-22T05:49:16.630Z,23.20
2018-08-22T05:51:45.613Z,23.24
2018-08-22T05:54:14.641Z,23.20
2018-08-22T05:56:43.926Z,23.12
2018-08-22T05:59:12.870Z,23.16
2018-08-22T06:01:41.732Z,23.23
2018-08-22T06:04:10.968Z,23.23
2018-08-22T06:06:39.985Z,23.38
2018-08-22T06:09:12.316Z,23.44
2018-08-22T06:11:42.237Z,23.46
2018-08-22T06:14:11.686Z,23.64
2018-08-22T06:16:40.665Z,23.73
2018-08-22T06:19:09.903Z,23.81
2018-08-22T06:21:38.882Z,23.95
2018-08-22T06:24:07.955Z,24.05
2018-08-22T06:26:37.125Z,24.09
2018-08-22T06:29:06.081Z,24.20
2018-08-22T06:31:34.936Z,24.30
2018-08-22T06:34:03.870Z,24.36
2018-08-22T06:36:32.804Z,24.46
2018-08-22T06:39:01.696Z,24.59
2018-08-22T06:41:30.626Z,24.68
2018-08-22T06:43:59.585Z,24.70
2018-08-22T06:46:28.530Z,24.78
2018-08-22T06:48:57.353Z,24.86
2018-08-22T06:51:26.664Z,24.97
2018-08-22T06:53:55.555Z,24.97
2018-08-22T06:56:24.473Z,25.00
2018-08-22T06:58:53.728Z,25.04
2018-08-22T07:01:22.569Z,25.18
2018-08-22T07:03:51.500Z,25.35
2018-08-22T07:06:20.369Z,25.47
2018-08-22T07:08:49.274Z,25.59
2018-08-22T07:11:18.137Z,25.64
2018-08-22T07:13:47.203Z,25.79
2018-08-22T07:16:16.095Z,25.92
2018-08-22T07:18:45.079Z,26.05
2018-08-22T07:21:14.340Z,26.08
2018-08-22T07:23:43.193Z,26.15
2018-08-22T07:26:12.245Z,26.25
2018-08-22T07:28:41.344Z,26.37
2018-08-22T07:37:55.162Z,26.72
2018-08-22T07:40:24.003Z,26.86
2018-08-22T07:42:53.169Z,26.89
2018-08-22T07:45:22.834Z,27.05
2018-08-22T07:47:51.889Z,27.23
2018-08-22T07:50:20.905Z,27.20
2018-08-22T07:53:05.931Z,27.38
2018-08-22T07:55:38.516Z,27.59
2018-08-22T07:58:07.882Z,27.70
2018-08-22T08:00:37.002Z,27.80
2018-08-22T08:03:06.093Z,27.81
2018-08-22T08:05:35.804Z,27.71
2018-08-22T08:08:04.933Z,27.88
2018-08-22T08:10:34.889Z,27.98
2018-08-22T08:13:09.515Z,28.03
2018-08-22T08:15:38.382Z,28.20
2018-08-22T08:18:07.304Z,28.35
2018-08-22T08:20:36.569Z,28.45
2018-08-22T08:23:05.640Z,28.58
2018-08-22T08:25:34.615Z,28.60
2018-08-22T08:28:03.441Z,28.88
2018-08-22T08:30:32.417Z,29.03
2018-08-22T08:33:01.388Z,29.10
2018-08-22T08:35:30.533Z,29.23
2018-08-22T08:37:59.500Z,29.32
2018-08-22T08:40:28.480Z,29.43
2018-08-22T08:42:57.410Z,29.56
2018-08-22T08:45:26.300Z,29.65
2018-08-22T08:47:55.263Z,29.65
2018-08-22T08:50:24.385Z,29.83
2018-08-22T08:52:53.461Z,30.01
2018-08-22T08:55:22.448Z,30.14
2018-08-22T08:57:51.819Z,30.23
2018-08-22T09:00:20.846Z,30.10
2018-08-22T09:02:49.629Z,30.22
2018-08-22T09:05:18.675Z,30.32
2018-08-22T09:07:47.777Z,30.42
2018-08-22T09:10:16.850Z,30.55
2018-08-22T09:12:46.081Z,30.53
2018-08-22T09:15:15.040Z,30.59
2018-08-22T09:17:44.113Z,30.63
2018-08-22T09:20:13.219Z,30.74
2018-08-22T09:22:42.163Z,30.87
2018-08-22T09:25:11.227Z,31.04
2018-08-22T09:27:40.720Z,31.24
2018-08-22T09:30:09.801Z,31.28
2018-08-22T09:32:38.935Z,31.15
2018-08-22T09:35:08.144Z,30.94
2018-08-22T09:37:37.020Z,31.00
2018-08-22T09:40:06.069Z,30.99
2018-08-22T09:42:35.594Z,31.16
2018-08-22T09:45:04.625Z,31.14
2018-08-22T09:47:33.522Z,31.25
2018-08-22T09:50:03.002Z,31.20
2018-08-22T09:52:31.925Z,31.53
2018-08-22T09:55:02.405Z,31.74
2018-08-22T09:57:31.993Z,31.90
2018-08-22T10:00:01.006Z,31.91
2018-08-22T10:09:17.332Z,31.50
2018-08-22T10:11:46.313Z,31.53
2018-08-22T10:14:15.432Z,31.83
2018-08-22T10:16:44.441Z,31.97
2018-08-22T10:19:13.448Z,32.08
2018-08-22T10:21:42.421Z,32.30
2018-08-22T10:24:11.696Z,32.11
2018-08-22T10:26:40.717Z,31.94
2018-08-22T10:29:09.660Z,32.04
2018-08-22T10:31:39.027Z,31.79
2018-08-22T10:34:07.814Z,31.68
2018-08-22T10:36:36.698Z,31.74
2018-08-22T10:39:08.428Z,31.48
2018-08-22T10:41:37.667Z,31.77
2018-08-22T10:44:07.060Z,31.98
2018-08-22T10:46:36.406Z,32.13
2018-08-22T10:49:05.359Z,31.94
2018-08-22T10:51:34.389Z,32.13
2018-08-22T10:54:03.380Z,32.12
2018-08-22T10:56:32.682Z,31.98
2018-08-22T10:59:01.706Z,32.20
2018-08-22T11:01:31.003Z,32.49
2018-08-22T11:03:59.970Z,32.66
2018-08-22T11:06:28.987Z,32.75
2018-08-22T11:08:58.485Z,32.79
2018-08-22T11:11:27.549Z,32.86
2018-08-22T11:13:56.486Z,32.72
2018-08-22T11:16:25.573Z,32.75
2018-08-22T11:18:54.652Z,32.92
2018-08-22T11:21:34.598Z,33.14
2018-08-22T11:24:14.323Z,33.34
2018-08-22T11:26:54.116Z,33.56
2018-08-22T11:29:34.086Z,33.65
2018-08-22T11:32:13.985Z,33.81
2018-08-22T11:34:47.918Z,33.66
2018-08-22T11:37:17.801Z,33.75
2018-08-22T11:39:48.216Z,33.78
2018-08-22T11:42:17.248Z,33.94
2018-08-22T11:44:46.556Z,34.09
2018-08-22T11:47:15.508Z,33.66
2018-08-22T11:49:44.574Z,33.47
2018-08-22T11:52:13.522Z,33.62
2018-08-22T11:54:42.568Z,33.72
2018-08-22T11:57:11.605Z,33.61
2018-08-22T11:59:40.613Z,33.77
2018-08-22T12:02:10.676Z,33.85
2018-08-22T12:04:39.645Z,33.49
2018-08-22T12:07:09.009Z,33.41
2018-08-22T12:09:37.813Z,32.83
2018-08-22T12:12:06.770Z,32.90
2018-08-22T12:14:35.817Z,32.88
2018-08-22T12:17:04.762Z,32.89
2018-08-22T12:19:33.640Z,32.89
2018-08-22T12:22:03.138Z,33.22
2018-08-22T12:24:32.094Z,33.55
2018-08-22T12:27:01.193Z,33.67
2018-08-22T12:29:30.253Z,33.32
2018-08-22T12:31:59.070Z,33.25
2018-08-22T12:34:28.095Z,33.19
2018-08-22T12:36:57.077Z,33.50
2018-08-22T12:39:26.954Z,33.75
2018-08-22T12:41:55.951Z,33.97
2018-08-22T12:44:25.667Z,33.92
2018-08-22T12:46:54.547Z,34.01
2018-08-22T12:49:23.537Z,34.12
2018-08-22T12:51:52.524Z,34.19
2018-08-22T12:54:21.583Z,34.31
2018-08-22T12:56:50.340Z,34.38
2018-08-22T12:59:19.232Z,34.13
2018-08-22T13:01:48.236Z,34.10
2018-08-22T13:04:17.244Z,33.73
2018-08-22T13:06:46.646Z,33.57
2018-08-22T13:09:15.588Z,33.22
2018-08-22T13:11:44.642Z,33.14
2018-08-22T13:14:13.529Z,33.33
2018-08-22T13:16:42.400Z,33.54
2018-08-22T13:19:11.291Z,33.73
2018-08-22T13:21:40.113Z,33.45
2018-08-22T13:24:09.013Z,33.27
2018-08-22T13:26:37.960Z,33.17
2018-08-22T13:29:07.066Z,32.96
2018-08-22T13:31:36.199Z,33.14
2018-08-22T13:34:05.188Z,33.44
2018-08-22T13:36:34.277Z,33.70
2018-08-22T13:39:08.694Z,33.83
2018-08-22T13:41:37.832Z,34.02
2018-08-22T13:44:06.753Z,34.10
2018-08-22T13:46:35.804Z,34.19
2018-08-22T13:49:05.064Z,34.26
2018-08-22T13:51:34.053Z,34.36
2018-08-22T13:54:03.092Z,34.32
2018-08-22T13:56:32.318Z,34.21
2018-08-22T13:59:01.297Z,33.88
2018-08-22T14:01:30.232Z,33.55
2018-08-22T14:03:59.284Z,33.46
2018-08-22T14:06:28.354Z,33.31
2018-08-22T14:08:57.302Z,33.06
2018-08-22T14:11:26.692Z,33.06
2018-08-22T14:13:55.539Z,33.26
2018-08-22T14:16:24.541Z,33.50
2018-08-22T14:18:54.453Z,33.58
2018-08-22T14:21:23.334Z,33.61
2018-08-22T14:23:52.227Z,33.49
2018-08-22T14:26:21.102Z,33.44
2018-08-22T14:28:49.966Z,33.25
2018-08-22T14:31:18.787Z,33.37
2018-08-22T14:33:47.802Z,33.51
2018-08-22T14:36:16.879Z,33.67
2018-08-22T14:38:45.911Z,33.79
2018-08-22T14:41:14.955Z,33.61
2018-08-22T14:43:43.948Z,33.56
2018-08-22T14:46:12.991Z,33.70
2018-08-22T14:48:42.244Z,33.82
2018-08-22T14:51:11.335Z,33.92
2018-08-22T14:53:40.385Z,34.00
2018-08-22T14:56:09.503Z,34.06
2018-08-22T14:58:38.446Z,34.18
2018-08-22T15:01:07.551Z,34.18
2018-08-22T15:03:36.485Z,33.94
2018-08-22T15:06:05.382Z,33.57
2018-08-22T15:08:34.465Z,33.49
2018-08-22T15:11:03.501Z,33.49
2018-08-22T15:13:32.320Z,33.56
2018-08-22T15:16:01.365Z,33.46
2018-08-22T15:18:30.475Z,33.55
2018-08-22T15:20:59.672Z,33.55
2018-08-22T15:23:28.533Z,33.26
2018-08-22T15:25:58.082Z,33.04
2018-08-22T15:28:27.198Z,33.17
2018-08-22T15:30:56.375Z,33.12
2018-08-22T15:33:26.154Z,33.20
2018-08-22T15:35:55.235Z,33.00
2018-08-22T15:38:24.281Z,33.01
2018-08-22T15:40:53.738Z,32.97
2018-08-22T15:43:22.805Z,32.67
2018-08-22T15:45:51.777Z,32.88
2018-08-22T15:48:21.113Z,32.94
2018-08-22T15:50:50.093Z,32.68
2018-08-22T15:53:20.246Z,32.73
2018-08-22T15:55:49.293Z,32.81
2018-08-22T15:58:18.317Z,32.81
2018-08-22T16:00:52.373Z,32.58
2018-08-22T16:03:22.170Z,32.64
2018-08-22T16:05:52.560Z,32.62
2018-08-22T16:08:22.982Z,32.63
2018-08-22T16:10:52.586Z,32.61
2018-08-22T16:13:26.591Z,32.68
2018-08-22T16:15:56.730Z,32.59
2018-08-22T16:18:25.493Z,32.57
2018-08-22T16:20:54.570Z,32.52
2018-08-22T16:23:27.480Z,32.57
2018-08-22T16:25:57.197Z,32.40
2018-08-22T16:28:26.821Z,32.45
2018-08-22T16:30:58.421Z,32.51
2018-08-22T16:33:27.437Z,32.46
2018-08-22T16:35:56.471Z,32.39
2018-08-22T16:38:25.904Z,32.34
2018-08-22T16:40:54.937Z,32.34
2018-08-22T16:43:39.427Z,32.33
2018-08-22T16:46:10.208Z,32.21
2018-08-22T16:48:40.305Z,32.15
2018-08-22T16:51:09.292Z,32.04
2018-08-22T16:53:38.243Z,31.94
2018-08-22T16:56:07.602Z,32.00
2018-08-22T16:58:36.725Z,31.95
2018-08-22T17:01:05.899Z,31.86
2018-08-22T17:03:35.315Z,31.73
2018-08-22T17:06:09.113Z,31.63
2018-08-22T17:08:38.376Z,31.60
2018-08-22T17:11:08.176Z,31.59
2018-08-22T17:13:43.164Z,31.45
2018-08-22T17:16:11.997Z,31.36
2018-08-22T17:18:41.133Z,31.20
2018-08-22T17:21:10.970Z,31.19
2018-08-22T17:23:40.353Z,31.16
2018-08-22T17:26:14.087Z,31.03
2018-08-22T17:28:45.489Z,30.91
2018-08-22T17:31:15.125Z,30.90
2018-08-22T17:33:48.399Z,30.78
2018-08-22T17:36:17.826Z,30.72
2018-08-22T17:38:48.025Z,30.62
2018-08-22T17:41:18.695Z,30.56
2018-08-22T17:43:59.598Z,30.38
2018-08-22T17:46:31.005Z,30.32
2018-08-22T17:48:59.945Z,30.20
2018-08-22T17:51:29.146Z,30.11
2018-08-22T17:53:58.108Z,30.04
2018-08-22T17:56:27.678Z,29.95
2018-08-22T17:58:57.480Z,29.83
2018-08-22T18:01:26.647Z,29.85
2018-08-22T18:03:56.832Z,29.61
2018-08-22T18:06:26.353Z,29.54
2018-08-22T18:08:55.702Z,29.48
2018-08-22T18:11:26.285Z,29.51
2018-08-22T18:13:58.586Z,29.47
2018-08-22T18:16:27.555Z,29.51
2018-08-22T18:18:56.669Z,29.48
2018-08-22T18:21:33.828Z,29.47
2018-08-22T18:24:03.502Z,29.46
2018-08-22T18:26:32.864Z,29.35
2018-08-22T18:29:02.603Z,29.31
2018-08-22T18:31:31.527Z,29.24
2018-08-22T18:34:02.974Z,29.23
2018-08-22T18:36:32.849Z,29.27
2018-08-22T18:39:13.292Z,29.10
2018-08-22T18:41:42.158Z,29.02
2018-08-22T18:44:11.181Z,28.91
2018-08-22T18:46:40.209Z,28.81
2018-08-22T18:49:09.082Z,28.81
2018-08-22T18:51:38.091Z,28.84
2018-08-22T18:54:07.207Z,28.81
2018-08-22T18:56:36.121Z,28.68
2018-08-22T18:59:15.827Z,28.61
2018-08-22T19:01:44.868Z,28.48
2018-08-22T19:04:13.735Z,28.44
2018-08-22T19:06:42.730Z,28.40
2018-08-22T19:09:11.693Z,28.35
2018-08-22T19:11:40.793Z,28.31
2018-08-22T19:14:10.217Z,28.23
2018-08-22T19:16:39.905Z,28.19
2018-08-22T19:19:08.839Z,28.15
2018-08-22T19:21:37.757Z,28.10
2018-08-22T19:24:07.457Z,28.09
2018-08-22T19:26:36.251Z,28.02
2018-08-22T19:29:07.024Z,27.99
2018-08-22T19:31:38.240Z,27.96
2018-08-22T19:34:07.356Z,27.91
2018-08-22T19:36:36.321Z,27.88
2018-08-22T19:39:06.652Z,27.86
2018-08-22T19:41:35.516Z,27.84
2018-08-22T19:44:05.049Z,27.81
2018-08-22T19:46:34.471Z,27.77
2018-08-22T19:49:03.364Z,27.74
2018-08-22T19:51:32.319Z,27.74
2018-08-22T19:54:04.592Z,27.69
2018-08-22T19:56:33.752Z,27.58
2018-08-22T19:59:03.291Z,27.61
2018-08-22T20:01:34.169Z,27.56
2018-08-22T20:04:03.195Z,27.50
2018-08-22T20:06:32.561Z,27.41
2018-08-22T20:09:02.113Z,27.31
2018-08-22T20:11:34.141Z,27.22
2018-08-22T20:14:04.811Z,27.13
2018-08-22T20:16:33.716Z,27.10
2018-08-22T20:19:03.967Z,27.03
2018-08-22T20:21:40.493Z,26.96
2018-08-22T20:24:11.139Z,26.79
2018-08-22T20:26:49.008Z,26.74
2018-08-22T20:29:18.166Z,26.63
2018-08-22T20:31:47.186Z,26.51
2018-08-22T20:34:17.200Z,26.41
2018-08-22T20:36:48.948Z,26.39
2018-08-22T20:39:17.988Z,26.34
2018-08-22T20:41:47.117Z,26.28
2018-08-22T20:44:18.214Z,26.21
2018-08-22T20:46:48.202Z,26.13
2018-08-22T20:49:19.278Z,26.11
2018-08-22T20:51:48.639Z,26.09
2018-08-22T20:54:21.539Z,26.07
2018-08-22T20:56:56.754Z,25.89
2018-08-22T20:59:25.827Z,25.94
2018-08-22T21:02:00.026Z,25.83
2018-08-22T21:04:29.069Z,25.83
2018-08-22T21:06:58.077Z,25.87
2018-08-22T21:09:27.227Z,25.81
2018-08-22T21:11:58.239Z,25.78
2018-08-22T21:14:28.652Z,25.80
2018-08-22T21:16:57.557Z,25.70
2018-08-22T21:19:26.547Z,25.63
2018-08-22T21:21:55.489Z,25.60
2018-08-22T21:24:25.253Z,25.52
2018-08-22T21:26:54.146Z,25.51
2018-08-22T21:29:23.063Z,25.54
2018-08-22T21:31:52.059Z,25.51
2018-08-22T21:34:21.091Z,25.48
2018-08-22T21:36:50.061Z,25.35
2018-08-22T21:39:24.789Z,25.33
2018-08-22T21:41:54.462Z,25.35
2018-08-22T21:44:24.190Z,25.32
2018-08-22T21:47:00.424Z,25.20
2018-08-22T21:49:29.805Z,25.20
2018-08-22T21:52:01.679Z,25.09
2018-08-22T21:54:30.682Z,24.96
2018-08-22T21:56:59.658Z,25.00
2018-08-22T21:59:28.655Z,25.00
2018-08-22T22:02:02.845Z,24.92
2018-08-22T22:04:34.766Z,24.94
2018-08-22T22:07:04.950Z,24.86
2018-08-22T22:09:34.522Z,24.85
2018-08-22T22:12:04.049Z,24.82
2018-08-22T22:14:36.715Z,24.81
2018-08-22T22:17:06.381Z,24.76
2018-08-22T22:19:36.289Z,24.72
2018-08-22T22:22:05.952Z,24.72
2018-08-22T22:24:41.403Z,24.70
2018-08-22T22:27:10.903Z,24.66
2018-08-22T22:29:39.795Z,24.58
2018-08-22T22:32:12.630Z,24.65
2018-08-22T22:34:41.773Z,24.58
2018-08-22T22:37:17.387Z,24.48
2018-08-22T22:39:46.990Z,24.29
2018-08-22T22:42:28.162Z,24.28
2018-08-22T22:44:58.440Z,24.17
2018-08-22T22:47:31.564Z,24.09
2018-08-22T22:50:01.200Z,24.15
2018-08-22T22:52:40.084Z,24.17
2018-08-22T22:55:10.012Z,24.19
2018-08-22T22:57:40.303Z,24.18
2018-08-22T23:00:13.245Z,24.17
2018-08-22T23:02:42.393Z,24.07
2018-08-22T23:05:11.433Z,23.99
2018-08-22T23:07:41.333Z,23.94
2018-08-22T23:10:12.751Z,23.69
2018-08-22T23:12:45.674Z,23.68
2018-08-22T23:15:17.429Z,23.76
2018-08-22T23:17:47.906Z,23.70
2018-08-22T23:20:27.804Z,23.66
2018-08-22T23:22:57.808Z,23.57
2018-08-22T23:25:27.079Z,23.55
2018-08-22T23:27:56.114Z,23.43
2018-08-22T23:30:30.073Z,23.42
2018-08-22T23:32:59.095Z,23.35
2018-08-22T23:35:33.528Z,23.29
2018-08-22T23:38:07.696Z,23.27
2018-08-22T23:40:37.967Z,23.20
2018-08-22T23:43:06.870Z,23.13
2018-08-22T23:45:37.639Z,23.07
2018-08-22T23:48:06.988Z,22.99
2018-08-22T23:50:45.577Z,22.86
2018-08-22T23:53:14.497Z,22.80
2018-08-22T23:55:43.328Z,22.75
2018-08-22T23:58:12.629Z,22.65
